createdAt,value
2017-08-09T00:00:14.079Z,994.1
2017-08-09T00:01:15.640Z,994.1
2017-08-09T00:02:17.214Z,994.1
2017-08-09T00:03:18.725Z,994.1
2017-08-09T00:04:20.294Z,994.2
2017-08-09T00:05:21.862Z,994.2
2017-08-09T00:06:23.420Z,994.2
2017-08-09T00:07:25.044Z,994.2
2017-08-09T00:08:26.576Z,994.3
2017-08-09T00:09:28.199Z,994.4
2017-08-09T00:10:29.728Z,994.4
2017-08-09T00:11:31.269Z,994.4
2017-08-09T00:12:32.858Z,994.4
2017-08-09T00:13:34.467Z,994.3
2017-08-09T00:14:36.063Z,994.3
2017-08-09T00:15:37.598Z,994.3
2017-08-09T00:16:39.361Z,994.3
2017-08-09T00:17:40.914Z,994.3
2017-08-09T00:18:42.523Z,994.3
2017-08-09T00:19:44.281Z,994.3
2017-08-09T00:20:45.944Z,994.3
2017-08-09T00:21:47.787Z,994.4
2017-08-09T00:22:49.338Z,994.4
2017-08-09T00:23:50.910Z,994.4
2017-08-09T00:24:52.562Z,994.4
2017-08-09T00:25:54.232Z,994.4
2017-08-09T00:26:55.979Z,994.5
2017-08-09T00:27:57.827Z,994.5
2017-08-09T00:28:59.569Z,994.5
2017-08-09T00:30:01.297Z,994.5
2017-08-09T00:31:03.079Z,994.5
2017-08-09T00:32:04.750Z,994.5
2017-08-09T00:33:06.502Z,994.5
2017-08-09T00:34:08.311Z,994.5
2017-08-09T00:35:10.178Z,994.6
2017-08-09T00:36:11.947Z,994.6
2017-08-09T00:37:13.717Z,994.7
2017-08-09T00:38:15.367Z,994.7
2017-08-09T00:39:17.043Z,994.7
2017-08-09T00:40:18.662Z,994.8
2017-08-09T00:41:20.332Z,994.8
2017-08-09T00:42:21.888Z,994.8
2017-08-09T00:43:23.457Z,994.7
2017-08-09T00:44:25.062Z,994.7
2017-08-09T00:45:26.657Z,994.7
2017-08-09T00:46:28.249Z,994.7
2017-08-09T00:47:29.763Z,994.6
2017-08-09T00:48:31.457Z,994.6
2017-08-09T00:49:33.069Z,994.6
2017-08-09T00:50:34.626Z,994.6
2017-08-09T00:51:36.273Z,994.6
2017-08-09T00:52:37.884Z,994.6
2017-08-09T00:53:39.619Z,994.5
2017-08-09T00:54:41.188Z,994.5
2017-08-09T00:55:42.763Z,994.6
2017-08-09T00:56:44.377Z,994.6
2017-08-09T00:57:45.976Z,994.6
2017-08-09T00:58:47.625Z,994.6
2017-08-09T00:59:49.262Z,994.5
2017-08-09T01:00:50.892Z,994.6
2017-08-09T01:01:52.472Z,994.6
2017-08-09T01:02:54.067Z,994.6
2017-08-09T01:03:55.680Z,994.6
2017-08-09T01:04:57.264Z,994.6
2017-08-09T01:05:58.908Z,994.6
2017-08-09T01:07:00.514Z,994.6
2017-08-09T01:08:02.051Z,994.5
2017-08-09T01:09:03.784Z,994.5
2017-08-09T01:10:05.511Z,994.5
2017-08-09T01:11:07.157Z,994.5
2017-08-09T01:12:08.775Z,994.4
2017-08-09T01:13:10.474Z,994.5
2017-08-09T01:14:12.102Z,994.5
2017-08-09T01:15:13.731Z,994.5
2017-08-09T01:16:15.330Z,994.5
2017-08-09T01:17:16.940Z,994.5
2017-08-09T01:18:18.566Z,994.4
2017-08-09T01:19:20.136Z,994.5
2017-08-09T01:20:21.789Z,994.5
2017-08-09T01:21:23.426Z,994.5
2017-08-09T01:22:24.964Z,994.5
2017-08-09T01:23:26.792Z,994.4
2017-08-09T01:24:28.373Z,994.4
2017-08-09T01:25:30.026Z,994.4
2017-08-09T01:26:31.777Z,994.5
2017-08-09T01:27:33.401Z,994.5
2017-08-09T01:28:35.040Z,994.5
2017-08-09T01:29:36.644Z,994.5
2017-08-09T01:30:38.218Z,994.4
2017-08-09T01:31:39.855Z,994.4
2017-08-09T01:32:41.365Z,994.4
2017-08-09T01:33:43.015Z,994.4
2017-08-09T01:34:44.578Z,994.4
2017-08-09T01:35:46.096Z,994.4
2017-08-09T01:36:47.595Z,994.4
2017-08-09T01:37:49.313Z,994.4
2017-08-09T01:38:51.014Z,994.5
2017-08-09T01:39:52.778Z,994.4
2017-08-09T01:40:54.325Z,994.5
2017-08-09T01:41:55.866Z,994.5
2017-08-09T01:42:57.467Z,994.5
2017-08-09T01:43:59.090Z,994.6
2017-08-09T01:45:01.076Z,994.6
2017-08-09T01:46:03.141Z,994.6
2017-08-09T01:47:05.080Z,994.6
2017-08-09T01:48:07.064Z,994.7
2017-08-09T01:49:09.169Z,994.7
2017-08-09T01:50:11.206Z,994.7
2017-08-09T01:51:13.291Z,994.7
2017-08-09T01:52:15.173Z,994.7
2017-08-09T01:53:17.340Z,994.7
2017-08-09T01:54:18.890Z,994.7
2017-08-09T01:55:20.482Z,994.7
2017-08-09T01:56:22.081Z,994.7
2017-08-09T01:57:23.643Z,994.7
2017-08-09T01:58:25.376Z,994.7
2017-08-09T01:59:26.983Z,994.6
2017-08-09T02:00:28.577Z,994.6
2017-08-09T02:01:30.216Z,994.7
2017-08-09T02:02:31.783Z,994.6
2017-08-09T02:03:33.380Z,994.6
2017-08-09T02:04:34.981Z,994.6
2017-08-09T02:05:36.569Z,994.6
2017-08-09T02:06:38.132Z,994.7
2017-08-09T02:07:39.744Z,994.7
2017-08-09T02:08:41.306Z,994.8
2017-08-09T02:09:42.993Z,994.8
2017-08-09T02:10:44.862Z,994.8
2017-08-09T02:11:46.510Z,994.7
2017-08-09T02:12:48.249Z,994.7
2017-08-09T02:13:49.854Z,994.7
2017-08-09T02:14:51.467Z,994.7
2017-08-09T02:15:53.153Z,994.7
2017-08-09T02:16:54.968Z,994.7
2017-08-09T02:17:56.501Z,994.8
2017-08-09T02:18:58.093Z,994.7
2017-08-09T02:19:59.778Z,994.8
2017-08-09T02:21:01.378Z,994.8
2017-08-09T02:22:02.982Z,994.7
2017-08-09T02:23:04.549Z,994.7
2017-08-09T02:24:06.181Z,994.6
2017-08-09T02:25:07.778Z,994.6
2017-08-09T02:26:09.581Z,994.6
2017-08-09T02:27:11.212Z,994.6
2017-08-09T02:28:12.772Z,994.6
2017-08-09T02:29:14.439Z,994.6
2017-08-09T02:30:16.052Z,994.6
2017-08-09T02:31:17.696Z,994.6
2017-08-09T02:32:19.403Z,994.6
2017-08-09T02:33:21.068Z,994.6
2017-08-09T02:34:22.735Z,994.6
2017-08-09T02:35:24.384Z,994.6
2017-08-09T02:36:25.967Z,994.6
2017-08-09T02:37:27.617Z,994.7
2017-08-09T02:38:29.137Z,994.6
2017-08-09T02:39:30.738Z,994.7
2017-08-09T02:40:32.328Z,994.6
2017-08-09T02:41:33.920Z,994.7
2017-08-09T02:42:35.554Z,994.6
2017-08-09T02:43:37.252Z,994.6
2017-08-09T02:44:38.894Z,994.5
2017-08-09T02:45:40.432Z,994.5
2017-08-09T02:46:42.077Z,994.5
2017-08-09T02:47:43.813Z,994.5
2017-08-09T02:48:45.488Z,994.5
2017-08-09T02:49:47.203Z,994.6
2017-08-09T02:50:48.809Z,994.6
2017-08-09T02:51:50.429Z,994.6
2017-08-09T02:52:52.120Z,994.5
2017-08-09T02:53:53.737Z,994.5
2017-08-09T02:54:55.346Z,994.5
2017-08-09T02:55:56.988Z,994.5
2017-08-09T02:56:58.605Z,994.5
2017-08-09T02:58:00.222Z,994.5
2017-08-09T02:59:01.886Z,994.5
2017-08-09T03:00:03.480Z,994.5
2017-08-09T03:01:05.116Z,994.6
2017-08-09T03:02:06.739Z,994.6
2017-08-09T03:03:08.347Z,994.6
2017-08-09T03:04:09.875Z,994.6
2017-08-09T03:05:11.426Z,994.6
2017-08-09T03:06:12.982Z,994.6
2017-08-09T03:07:14.575Z,994.5
2017-08-09T03:08:16.261Z,994.6
2017-08-09T03:09:17.825Z,994.6
2017-08-09T03:10:19.472Z,994.5
2017-08-09T03:11:21.054Z,994.5
2017-08-09T03:12:22.586Z,994.6
2017-08-09T03:13:24.162Z,994.6
2017-08-09T03:14:25.693Z,994.6
2017-08-09T03:15:27.256Z,994.6
2017-08-09T03:16:28.858Z,994.6
2017-08-09T03:17:30.500Z,994.7
2017-08-09T03:18:32.113Z,994.7
2017-08-09T03:19:33.735Z,994.8
2017-08-09T03:20:35.292Z,994.8
2017-08-09T03:21:37.001Z,994.8
2017-08-09T03:22:38.617Z,994.8
2017-08-09T03:23:40.180Z,994.9
2017-08-09T03:24:41.779Z,994.9
2017-08-09T03:25:43.400Z,995.0
2017-08-09T03:26:44.964Z,995.0
2017-08-09T03:27:46.523Z,995.0
2017-08-09T03:28:48.135Z,994.9
2017-08-09T03:29:49.757Z,995.0
2017-08-09T03:30:51.586Z,995.0
2017-08-09T03:31:53.378Z,995.0
2017-08-09T03:32:55.022Z,995.0
2017-08-09T03:33:56.571Z,994.9
2017-08-09T03:34:58.313Z,994.9
2017-08-09T03:35:59.905Z,994.9
2017-08-09T03:37:01.541Z,994.9
2017-08-09T03:38:03.638Z,994.9
2017-08-09T03:39:05.157Z,994.9
2017-08-09T03:40:06.842Z,995.0
2017-08-09T03:41:08.553Z,994.9
2017-08-09T03:42:10.316Z,994.9
2017-08-09T03:43:12.074Z,994.9
2017-08-09T03:44:13.683Z,994.9
2017-08-09T03:45:15.344Z,994.9
2017-08-09T03:46:16.934Z,994.9
2017-08-09T03:47:18.454Z,994.9
2017-08-09T03:48:20.156Z,994.9
2017-08-09T03:49:21.813Z,994.9
2017-08-09T03:50:23.456Z,994.9
2017-08-09T03:51:25.106Z,994.9
2017-08-09T03:52:26.599Z,994.9
2017-08-09T03:53:28.385Z,994.9
2017-08-09T03:54:29.938Z,995.0
2017-08-09T03:55:31.503Z,995.0
2017-08-09T03:56:33.102Z,995.0
2017-08-09T03:57:34.618Z,995.0
2017-08-09T03:58:36.271Z,994.9
2017-08-09T03:59:37.831Z,995.0
2017-08-09T04:00:39.495Z,995.0
2017-08-09T04:01:41.087Z,995.0
2017-08-09T04:02:42.647Z,995.0
2017-08-09T04:03:44.361Z,995.0
2017-08-09T04:04:46.037Z,995.1
2017-08-09T04:05:47.723Z,995.1
2017-08-09T04:06:49.376Z,995.1
2017-08-09T04:07:51.077Z,995.2
2017-08-09T04:08:52.783Z,995.2
2017-08-09T04:09:54.578Z,995.2
2017-08-09T04:10:56.279Z,995.1
2017-08-09T04:11:57.960Z,995.1
2017-08-09T04:12:59.648Z,995.1
2017-08-09T04:14:01.328Z,995.1
2017-08-09T04:15:02.978Z,995.1
2017-08-09T04:16:04.734Z,995.1
2017-08-09T04:17:06.448Z,995.1
2017-08-09T04:18:08.214Z,995.2
2017-08-09T04:19:09.949Z,995.2
2017-08-09T04:20:11.591Z,995.1
2017-08-09T04:21:13.250Z,995.1
2017-08-09T04:22:14.967Z,995.1
2017-08-09T04:23:16.640Z,995.1
2017-08-09T04:24:18.293Z,995.2
2017-08-09T04:25:19.852Z,995.2
2017-08-09T04:26:21.576Z,995.3
2017-08-09T04:27:23.122Z,995.3
2017-08-09T04:28:24.746Z,995.3
2017-08-09T04:29:26.362Z,995.4
2017-08-09T04:30:28.357Z,995.4
2017-08-09T04:31:30.041Z,995.4
2017-08-09T04:32:31.855Z,995.3
2017-08-09T04:33:33.506Z,995.3
2017-08-09T04:34:35.048Z,995.4
2017-08-09T04:35:36.785Z,995.4
2017-08-09T04:36:38.465Z,995.4
2017-08-09T04:37:40.110Z,995.4
2017-08-09T04:38:41.857Z,995.4
2017-08-09T04:39:43.541Z,995.4
2017-08-09T04:40:45.205Z,995.4
2017-08-09T04:41:47.000Z,995.5
2017-08-09T04:42:48.647Z,995.5
2017-08-09T04:43:50.479Z,995.5
2017-08-09T04:44:52.164Z,995.5
2017-08-09T04:45:53.843Z,995.5
2017-08-09T04:46:55.504Z,995.5
2017-08-09T04:47:57.280Z,995.5
2017-08-09T04:48:59.107Z,995.5
2017-08-09T04:50:01.049Z,995.5
2017-08-09T04:51:02.811Z,995.6
2017-08-09T04:52:04.535Z,995.6
2017-08-09T04:53:06.530Z,995.6
2017-08-09T04:54:08.480Z,995.6
2017-08-09T04:55:10.327Z,995.6
2017-08-09T04:56:11.996Z,995.6
2017-08-09T04:57:13.837Z,995.6
2017-08-09T04:58:15.587Z,995.6
2017-08-09T04:59:17.570Z,995.7
2017-08-09T05:00:19.252Z,995.7
2017-08-09T05:01:20.998Z,995.7
2017-08-09T05:02:22.780Z,995.7
2017-08-09T05:03:24.305Z,995.7
2017-08-09T05:04:27.068Z,995.8
2017-08-09T05:05:28.834Z,995.8
2017-08-09T05:06:30.502Z,995.8
2017-08-09T05:07:32.262Z,995.8
2017-08-09T05:08:34.088Z,995.8
2017-08-09T05:09:35.906Z,995.8
2017-08-09T05:10:37.904Z,995.8
2017-08-09T05:11:39.638Z,995.8
2017-08-09T05:12:41.270Z,995.8
2017-08-09T05:13:43.018Z,995.8
2017-08-09T05:14:44.793Z,995.9
2017-08-09T05:15:46.552Z,995.9
2017-08-09T05:16:48.550Z,996.0
2017-08-09T05:17:50.398Z,995.9
2017-08-09T05:18:52.154Z,995.9
2017-08-09T05:19:53.883Z,995.9
2017-08-09T05:20:55.669Z,996.0
2017-08-09T05:21:57.771Z,996.0
2017-08-09T05:22:59.507Z,996.0
2017-08-09T05:24:01.227Z,996.0
2017-08-09T05:25:02.920Z,996.0
2017-08-09T05:26:04.672Z,996.0
2017-08-09T05:27:06.481Z,996.0
2017-08-09T05:28:08.199Z,996.0
2017-08-09T05:29:09.935Z,996.0
2017-08-09T05:30:11.493Z,996.0
2017-08-09T05:31:13.181Z,996.0
2017-08-09T05:32:14.703Z,996.0
2017-08-09T05:33:16.358Z,996.0
2017-08-09T05:34:18.061Z,996.0
2017-08-09T05:35:19.776Z,996.0
2017-08-09T05:36:21.367Z,996.0
2017-08-09T05:37:23.177Z,996.0
2017-08-09T05:38:24.783Z,996.1
2017-08-09T05:39:26.437Z,996.1
2017-08-09T05:40:28.087Z,996.1
2017-08-09T05:41:29.675Z,996.1
2017-08-09T05:42:31.229Z,996.1
2017-08-09T05:43:32.794Z,996.1
2017-08-09T05:44:34.533Z,996.1
2017-08-09T05:45:36.292Z,996.1
2017-08-09T05:46:37.894Z,996.1
2017-08-09T05:47:39.654Z,996.1
2017-08-09T05:48:41.862Z,996.2
2017-08-09T05:49:43.482Z,996.1
2017-08-09T05:50:45.027Z,996.2
2017-08-09T05:51:46.592Z,996.2
2017-08-09T05:52:48.205Z,996.2
2017-08-09T05:53:49.862Z,996.2
2017-08-09T05:54:51.602Z,996.2
2017-08-09T05:55:53.241Z,996.2
2017-08-09T05:56:54.896Z,996.2
2017-08-09T05:57:56.495Z,996.1
2017-08-09T05:58:58.092Z,996.1
2017-08-09T05:59:59.680Z,996.1
2017-08-09T06:01:01.247Z,996.1
2017-08-09T06:02:02.868Z,996.1
2017-08-09T06:03:04.519Z,996.2
2017-08-09T06:04:06.109Z,996.2
2017-08-09T06:05:07.592Z,996.3
2017-08-09T06:06:09.175Z,996.2
2017-08-09T06:07:10.714Z,996.2
2017-08-09T06:08:12.761Z,996.2
2017-08-09T06:09:14.433Z,996.2
2017-08-09T06:10:16.036Z,996.2
2017-08-09T06:11:17.744Z,996.3
2017-08-09T06:12:19.499Z,996.3
2017-08-09T06:13:21.094Z,996.3
2017-08-09T06:14:22.600Z,996.3
2017-08-09T06:15:24.206Z,996.3
2017-08-09T06:16:28.245Z,996.3
2017-08-09T06:17:29.695Z,996.3
2017-08-09T06:18:31.244Z,996.3
2017-08-09T06:19:32.824Z,996.3
2017-08-09T06:20:34.391Z,996.4
2017-08-09T06:21:36.035Z,996.4
2017-08-09T06:22:37.562Z,996.5
2017-08-09T06:23:39.118Z,996.5
2017-08-09T06:24:40.707Z,996.5
2017-08-09T06:25:42.281Z,996.5
2017-08-09T06:26:43.802Z,996.5
2017-08-09T06:27:45.398Z,996.5
2017-08-09T06:28:46.934Z,996.6
2017-08-09T06:29:48.505Z,996.5
2017-08-09T06:30:50.017Z,996.6
2017-08-09T06:31:51.608Z,996.6
2017-08-09T06:32:53.130Z,996.7
2017-08-09T06:33:54.663Z,996.6
2017-08-09T06:34:56.228Z,996.7
2017-08-09T06:35:57.775Z,996.7
2017-08-09T06:36:59.300Z,996.6
2017-08-09T06:38:00.863Z,996.6
2017-08-09T06:39:02.411Z,996.7
2017-08-09T06:40:03.934Z,996.7
2017-08-09T06:41:05.539Z,996.7
2017-08-09T06:42:07.152Z,996.6
2017-08-09T06:43:08.836Z,996.6
2017-08-09T06:44:10.358Z,996.7
2017-08-09T06:45:11.898Z,996.6
2017-08-09T06:46:13.415Z,996.6
2017-08-09T06:47:15.075Z,996.7
2017-08-09T06:48:16.712Z,996.7
2017-08-09T06:49:18.309Z,996.7
2017-08-09T06:50:19.952Z,996.8
2017-08-09T06:51:21.517Z,996.8
2017-08-09T06:52:23.105Z,996.7
2017-08-09T06:53:24.681Z,996.9
2017-08-09T06:54:26.194Z,996.8
2017-08-09T06:55:27.742Z,996.9
2017-08-09T06:56:29.229Z,996.8
2017-08-09T06:57:30.861Z,996.9
2017-08-09T06:58:32.481Z,996.9
2017-08-09T06:59:34.199Z,996.9
2017-08-09T07:00:35.748Z,996.9
2017-08-09T07:01:37.314Z,996.9
2017-08-09T07:02:38.881Z,996.9
2017-08-09T07:03:40.423Z,996.9
2017-08-09T07:04:42.028Z,996.9
2017-08-09T07:05:43.659Z,996.9
2017-08-09T07:06:45.263Z,996.9
2017-08-09T07:07:46.879Z,996.9
2017-08-09T07:08:48.401Z,996.9
2017-08-09T07:09:50.026Z,996.9
2017-08-09T07:10:51.532Z,997.0
2017-08-09T07:11:53.150Z,997.0
2017-08-09T07:13:34.405Z,997.0
2017-08-09T07:14:35.822Z,997.0
2017-08-09T07:15:37.242Z,997.0
2017-08-09T07:16:38.667Z,997.0
2017-08-09T07:17:40.091Z,997.1
2017-08-09T07:18:41.520Z,997.0
2017-08-09T07:19:42.950Z,997.1
2017-08-09T07:20:44.374Z,997.1
2017-08-09T07:21:45.794Z,997.1
2017-08-09T07:22:47.209Z,997.0
2017-08-09T07:23:48.634Z,997.1
2017-08-09T07:24:50.041Z,997.1
2017-08-09T07:25:51.477Z,997.1
2017-08-09T07:26:52.900Z,997.2
2017-08-09T07:27:54.350Z,997.2
2017-08-09T07:28:55.777Z,997.2
2017-08-09T07:29:57.198Z,997.2
2017-08-09T07:30:58.679Z,997.3
2017-08-09T07:32:00.097Z,997.3
2017-08-09T07:33:01.522Z,997.3
2017-08-09T07:34:03.019Z,997.3
2017-08-09T07:35:04.439Z,997.2
2017-08-09T07:36:05.859Z,997.2
2017-08-09T07:37:07.291Z,997.2
2017-08-09T07:38:08.894Z,997.2
2017-08-09T07:39:10.547Z,997.2
2017-08-09T07:40:12.043Z,997.1
2017-08-09T07:41:13.623Z,997.2
2017-08-09T07:42:15.127Z,997.2
2017-08-09T07:43:16.682Z,997.2
2017-08-09T07:44:18.248Z,997.3
2017-08-09T07:45:19.926Z,997.2
2017-08-09T07:46:21.436Z,997.2
2017-08-09T07:47:22.979Z,997.2
2017-08-09T07:48:24.476Z,997.2
2017-08-09T07:49:26.014Z,997.3
2017-08-09T07:50:27.689Z,997.3
2017-08-09T07:51:29.197Z,997.3
2017-08-09T07:52:30.635Z,997.3
2017-08-09T07:53:32.139Z,997.3
2017-08-09T07:54:33.566Z,997.3
2017-08-09T07:55:35.013Z,997.3
2017-08-09T07:56:36.445Z,997.4
2017-08-09T07:57:37.866Z,997.4
2017-08-09T07:58:39.286Z,997.4
2017-08-09T07:59:40.712Z,997.4
2017-08-09T08:00:42.425Z,997.4
2017-08-09T08:01:43.832Z,997.4
2017-08-09T08:02:45.253Z,997.5
2017-08-09T08:03:46.684Z,997.5
2017-08-09T08:04:48.209Z,997.5
2017-08-09T08:05:49.764Z,997.5
2017-08-09T08:06:51.249Z,997.4
2017-08-09T08:07:52.853Z,997.5
2017-08-09T08:08:54.349Z,997.6
2017-08-09T08:09:55.898Z,997.5
2017-08-09T08:10:57.451Z,997.6
2017-08-09T08:11:59.059Z,997.6
2017-08-09T08:13:00.582Z,997.5
2017-08-09T08:14:02.116Z,997.5
2017-08-09T08:15:03.820Z,997.5
2017-08-09T08:16:05.450Z,997.5
2017-08-09T08:17:07.027Z,997.5
2017-08-09T08:18:08.546Z,997.6
2017-08-09T08:19:10.089Z,997.5
2017-08-09T08:20:11.656Z,997.5
2017-08-09T08:21:13.213Z,997.5
2017-08-09T08:22:14.796Z,997.5
2017-08-09T08:23:16.368Z,997.5
2017-08-09T08:24:17.973Z,997.5
2017-08-09T08:25:19.609Z,997.5
2017-08-09T08:26:21.289Z,997.5
2017-08-09T08:27:22.834Z,997.5
2017-08-09T08:28:24.389Z,997.6
2017-08-09T08:29:25.985Z,997.6
2017-08-09T08:30:29.378Z,997.6
2017-08-09T08:31:30.999Z,997.6
2017-08-09T08:32:32.610Z,997.6
2017-08-09T08:33:34.156Z,997.6
2017-08-09T08:34:35.688Z,997.6
2017-08-09T08:35:37.293Z,997.6
2017-08-09T08:36:38.808Z,997.6
2017-08-09T08:37:40.355Z,997.7
2017-08-09T08:38:41.986Z,997.7
2017-08-09T08:39:43.538Z,997.7
2017-08-09T08:40:45.123Z,997.7
2017-08-09T08:41:46.620Z,997.8
2017-08-09T08:42:48.179Z,997.8
2017-08-09T08:43:49.706Z,997.7
2017-08-09T08:44:51.282Z,997.7
2017-08-09T08:45:52.896Z,997.8
2017-08-09T08:46:54.440Z,997.8
2017-08-09T08:47:56.012Z,997.8
2017-08-09T08:48:57.523Z,997.8
2017-08-09T08:49:59.120Z,997.8
2017-08-09T08:51:00.738Z,997.7
2017-08-09T08:52:02.268Z,997.7
2017-08-09T08:53:03.982Z,997.7
2017-08-09T08:54:06.959Z,997.8
2017-08-09T08:55:12.057Z,997.8
2017-08-09T08:56:13.449Z,997.8
2017-08-09T08:57:14.984Z,997.8
2017-08-09T08:58:16.532Z,997.8
2017-08-09T08:59:18.151Z,997.7
2017-08-09T09:00:19.720Z,997.6
2017-08-09T09:01:21.300Z,997.7
2017-08-09T09:02:22.890Z,997.8
2017-08-09T09:03:24.491Z,997.8
2017-08-09T09:04:26.108Z,997.9
2017-08-09T09:05:27.647Z,997.9
2017-08-09T09:06:29.183Z,998.0
2017-08-09T09:07:30.782Z,998.0
2017-08-09T09:08:32.350Z,998.0
2017-08-09T09:09:33.950Z,998.0
2017-08-09T09:10:35.501Z,998.0
2017-08-09T09:11:37.056Z,998.1
2017-08-09T09:12:38.621Z,998.0
2017-08-09T09:13:40.208Z,998.0
2017-08-09T09:14:41.767Z,998.1
2017-08-09T09:15:43.377Z,998.2
2017-08-09T09:16:44.918Z,998.1
2017-08-09T09:17:46.539Z,998.1
2017-08-09T09:18:48.109Z,998.1
2017-08-09T09:19:49.774Z,998.1
2017-08-09T09:20:51.409Z,998.1
2017-08-09T09:21:53.052Z,998.2
2017-08-09T09:22:54.671Z,998.1
2017-08-09T09:23:56.238Z,998.1
2017-08-09T09:24:57.844Z,998.0
2017-08-09T09:25:59.483Z,998.0
2017-08-09T09:27:01.039Z,998.0
2017-08-09T09:28:02.641Z,998.1
2017-08-09T09:29:04.240Z,998.0
2017-08-09T09:30:05.800Z,998.0
2017-08-09T09:31:07.460Z,998.1
2017-08-09T09:32:09.100Z,998.2
2017-08-09T09:33:10.656Z,998.1
2017-08-09T09:34:12.273Z,998.1
2017-08-09T09:35:13.856Z,998.1
2017-08-09T09:36:15.547Z,998.0
2017-08-09T09:37:17.127Z,998.1
2017-08-09T09:38:18.624Z,998.1
2017-08-09T09:39:20.239Z,998.0
2017-08-09T09:40:21.826Z,998.1
2017-08-09T09:41:23.366Z,998.1
2017-08-09T09:42:25.026Z,998.2
2017-08-09T09:43:26.568Z,998.1
2017-08-09T09:44:28.238Z,998.1
2017-08-09T09:45:29.832Z,998.1
2017-08-09T09:46:31.500Z,998.1
2017-08-09T09:47:33.097Z,998.1
2017-08-09T09:48:34.777Z,998.1
2017-08-09T09:49:36.361Z,998.0
2017-08-09T09:50:37.913Z,998.0
2017-08-09T09:51:39.492Z,997.9
2017-08-09T09:52:41.435Z,998.0
2017-08-09T09:53:43.041Z,998.0
2017-08-09T09:54:44.764Z,998.0
2017-08-09T09:55:46.410Z,998.0
2017-08-09T09:56:48.063Z,998.0
2017-08-09T09:57:49.723Z,997.8
2017-08-09T09:58:51.393Z,997.8
2017-08-09T09:59:53.180Z,997.8
2017-08-09T10:00:55.230Z,997.9
2017-08-09T10:01:57.061Z,997.8
2017-08-09T10:02:58.761Z,998.0
2017-08-09T10:04:00.482Z,998.0
2017-08-09T10:05:01.960Z,997.9
2017-08-09T10:06:03.511Z,997.9
2017-08-09T10:07:05.033Z,997.8
2017-08-09T10:08:06.780Z,997.8
2017-08-09T10:09:08.339Z,997.8
2017-08-09T10:10:09.831Z,997.8
2017-08-09T10:11:11.390Z,997.8
2017-08-09T10:12:12.923Z,997.8
2017-08-09T10:13:14.516Z,997.7
2017-08-09T10:14:16.054Z,997.8
2017-08-09T10:15:17.644Z,997.8
2017-08-09T10:16:19.174Z,997.8
2017-08-09T10:17:20.791Z,997.9
2017-08-09T10:18:22.419Z,997.9
2017-08-09T10:19:23.948Z,997.8
2017-08-09T10:20:25.513Z,997.8
2017-08-09T10:21:26.938Z,997.8
2017-08-09T10:22:28.391Z,997.8
2017-08-09T10:23:29.900Z,997.9
2017-08-09T10:24:31.624Z,997.9
2017-08-09T10:25:33.118Z,997.9
2017-08-09T10:26:34.572Z,997.9
2017-08-09T10:27:36.027Z,997.9
2017-08-09T10:28:37.474Z,997.9
2017-08-09T10:29:38.938Z,997.9
2017-08-09T10:30:40.375Z,997.9
2017-08-09T10:31:41.831Z,997.9
2017-08-09T10:32:43.341Z,997.9
2017-08-09T10:33:44.841Z,997.8
2017-08-09T10:34:46.305Z,997.7
2017-08-09T10:35:47.806Z,997.9
2017-08-09T10:36:49.371Z,997.8
2017-08-09T10:37:51.063Z,997.8
2017-08-09T10:38:52.777Z,997.9
2017-08-09T10:39:54.290Z,997.9
2017-08-09T10:40:55.766Z,997.9
2017-08-09T10:41:57.397Z,997.9
2017-08-09T10:42:59.076Z,997.9
2017-08-09T10:44:00.671Z,997.9
2017-08-09T10:45:02.228Z,998.0
2017-08-09T10:46:03.751Z,997.9
2017-08-09T10:47:05.311Z,997.9
2017-08-09T10:48:06.841Z,997.9
2017-08-09T10:49:08.388Z,997.8
2017-08-09T10:50:09.830Z,997.8
2017-08-09T10:51:11.265Z,997.8
2017-08-09T10:52:12.703Z,997.9
2017-08-09T10:53:14.136Z,997.9
2017-08-09T10:54:15.641Z,997.8
2017-08-09T10:55:17.132Z,997.9
2017-08-09T10:56:18.631Z,997.9
2017-08-09T10:57:20.075Z,997.7
2017-08-09T10:58:21.583Z,997.8
2017-08-09T10:59:23.371Z,997.8
2017-08-09T11:00:24.952Z,997.8
2017-08-09T11:01:26.497Z,997.6
2017-08-09T11:02:28.081Z,997.3
2017-08-09T11:03:29.699Z,997.7
2017-08-09T11:04:31.231Z,997.8
2017-08-09T11:05:32.815Z,998.0
2017-08-09T11:06:34.469Z,998.5
2017-08-09T11:07:36.040Z,998.7
2017-08-09T11:08:37.626Z,998.6
2017-08-09T11:09:39.205Z,998.6
2017-08-09T11:10:40.772Z,997.8
2017-08-09T11:11:42.284Z,998.6
2017-08-09T11:12:43.967Z,998.6
2017-08-09T11:13:45.470Z,998.7
2017-08-09T11:14:47.081Z,998.7
2017-08-09T11:15:48.726Z,998.7
2017-08-09T11:16:50.254Z,998.7
2017-08-09T11:17:51.738Z,998.7
2017-08-09T11:18:53.342Z,998.7
2017-08-09T11:19:54.921Z,998.7
2017-08-09T11:20:56.441Z,998.7
2017-08-09T11:21:58.004Z,998.8
2017-08-09T11:22:59.635Z,998.5
2017-08-09T11:24:01.036Z,998.5
2017-08-09T11:25:02.469Z,998.7
2017-08-09T11:26:03.919Z,998.7
2017-08-09T11:27:05.388Z,998.6
2017-08-09T11:28:06.829Z,998.7
2017-08-09T11:29:08.272Z,998.6
2017-08-09T11:30:09.727Z,998.6
2017-08-09T11:31:11.204Z,998.6
2017-08-09T11:32:12.712Z,998.3
2017-08-09T11:33:14.237Z,998.5
2017-08-09T11:34:15.684Z,998.4
2017-08-09T11:35:17.176Z,998.3
2017-08-09T11:36:18.804Z,998.4
2017-08-09T11:37:20.370Z,998.4
2017-08-09T11:38:21.939Z,998.3
2017-08-09T11:39:23.476Z,998.5
2017-08-09T11:40:25.067Z,998.5
2017-08-09T11:41:26.607Z,998.5
2017-08-09T11:42:28.114Z,998.5
2017-08-09T11:43:29.735Z,998.6
2017-08-09T11:44:31.339Z,998.6
2017-08-09T11:45:33.023Z,998.6
2017-08-09T11:46:34.680Z,998.6
2017-08-09T11:47:36.145Z,998.6
2017-08-09T11:48:37.613Z,998.6
2017-08-09T11:49:39.104Z,998.6
2017-08-09T11:50:40.623Z,998.5
2017-08-09T11:51:42.335Z,998.5
2017-08-09T11:52:44.063Z,998.6
2017-08-09T11:53:45.662Z,998.6
2017-08-09T11:54:47.238Z,998.5
2017-08-09T11:55:48.961Z,998.5
2017-08-09T11:56:50.535Z,998.4
2017-08-09T11:57:52.150Z,998.5
2017-08-09T11:58:53.599Z,998.5
2017-08-09T11:59:55.067Z,998.5
2017-08-09T12:00:56.559Z,998.6
2017-08-09T12:01:58.124Z,998.7
2017-08-09T12:02:59.698Z,998.7
2017-08-09T12:04:01.312Z,998.7
2017-08-09T12:05:02.835Z,998.7
2017-08-09T12:06:04.404Z,998.8
2017-08-09T12:07:05.853Z,998.8
2017-08-09T12:08:07.344Z,998.8
2017-08-09T12:09:08.878Z,998.9
2017-08-09T12:10:10.387Z,998.8
2017-08-09T12:11:11.921Z,998.8
2017-08-09T12:12:13.392Z,998.7
2017-08-09T12:13:14.857Z,998.8
2017-08-09T12:14:16.299Z,998.8
2017-08-09T12:15:17.794Z,998.8
2017-08-09T12:16:19.324Z,998.8
2017-08-09T12:17:20.874Z,998.7
2017-08-09T12:18:22.453Z,998.8
2017-08-09T12:19:24.005Z,998.9
2017-08-09T12:20:25.508Z,998.8
2017-08-09T12:21:27.085Z,998.8
2017-08-09T12:22:28.602Z,998.8
2017-08-09T12:23:30.133Z,998.9
2017-08-09T12:24:31.656Z,998.8
2017-08-09T12:25:33.225Z,998.9
2017-08-09T12:26:34.699Z,998.8
2017-08-09T12:27:36.270Z,998.8
2017-08-09T12:28:37.734Z,998.9
2017-08-09T12:29:39.332Z,998.8
2017-08-09T12:30:40.833Z,998.8
2017-08-09T12:31:42.377Z,998.7
2017-08-09T12:32:43.930Z,998.7
2017-08-09T12:33:45.442Z,998.7
2017-08-09T12:34:47.049Z,998.7
2017-08-09T12:35:48.637Z,998.7
2017-08-09T12:36:50.215Z,998.7
2017-08-09T12:37:51.670Z,998.7
2017-08-09T12:38:53.143Z,998.7
2017-08-09T12:39:54.637Z,998.7
2017-08-09T12:40:56.174Z,998.7
2017-08-09T12:41:57.777Z,998.7
2017-08-09T12:42:59.310Z,998.7
2017-08-09T12:44:00.895Z,998.5
2017-08-09T12:45:02.350Z,998.6
2017-08-09T12:46:03.851Z,998.7
2017-08-09T12:47:05.412Z,998.7
2017-08-09T12:48:06.874Z,998.6
2017-08-09T12:49:08.507Z,998.6
2017-08-09T12:50:10.015Z,998.6
2017-08-09T12:51:11.607Z,998.6
2017-08-09T12:52:13.046Z,998.5
2017-08-09T12:53:14.515Z,998.4
2017-08-09T12:54:15.970Z,998.5
2017-08-09T12:55:17.454Z,998.5
2017-08-09T12:56:18.959Z,998.4
2017-08-09T12:57:20.444Z,998.4
2017-08-09T12:58:21.971Z,998.5
2017-08-09T12:59:23.504Z,998.4
2017-08-09T13:00:25.070Z,998.4
2017-08-09T13:01:26.638Z,998.4
2017-08-09T13:02:28.157Z,998.4
2017-08-09T13:03:29.720Z,998.3
2017-08-09T13:04:31.270Z,998.4
2017-08-09T13:05:32.722Z,998.3
2017-08-09T13:06:34.226Z,998.3
2017-08-09T13:07:35.686Z,998.3
2017-08-09T13:08:37.249Z,998.3
2017-08-09T13:09:38.791Z,998.3
2017-08-09T13:10:40.367Z,998.3
2017-08-09T13:11:41.926Z,998.3
2017-08-09T13:12:43.483Z,998.3
2017-08-09T13:13:44.999Z,998.2